createdAt,value
2019-05-02T00:01:03.628Z,8.00
2019-05-02T00:06:09.311Z,10.50
2019-05-02T00:11:14.044Z,10.20
2019-05-02T00:16:20.244Z,11.00
2019-05-02T00:21:24.670Z,8.50
2019-05-02T00:26:28.938Z,11.00
2019-05-02T00:31:33.143Z,10.00
2019-05-02T00:36:37.264Z,9.25
2019-05-02T00:41:41.482Z,9.60
2019-05-02T00:46:45.739Z,7.00
2019-05-02T00:51:49.778Z,9.50
2019-05-02T00:56:55.149Z,8.75
2019-05-02T01:02:16.211Z,8.60
2019-05-02T01:07:25.026Z,7.00
2019-05-02T01:12:26.899Z,9.20
2019-05-02T01:17:32.298Z,8.00
2019-05-02T01:22:36.385Z,8.75
2019-05-02T01:27:45.954Z,8.00
2019-05-02T01:33:06.350Z,8.75
2019-05-02T01:38:32.294Z,7.60
2019-05-02T01:43:37.257Z,8.20
2019-05-02T01:48:45.602Z,7.80
2019-05-02T01:53:47.591Z,8.50
2019-05-02T01:58:52.982Z,10.50
2019-05-02T02:03:57.690Z,8.80
2019-05-02T02:09:03.448Z,7.00
2019-05-02T02:14:12.914Z,7.50
2019-05-02T02:19:22.490Z,8.20
2019-05-02T02:24:30.507Z,7.40
2019-05-02T02:29:38.953Z,6.80
2019-05-02T02:34:40.575Z,7.50
2019-05-02T02:39:48.704Z,7.20
2019-05-02T02:45:00.766Z,7.00
2019-05-02T02:50:05.540Z,9.00
2019-05-02T02:55:09.999Z,8.40
2019-05-02T03:00:14.462Z,7.40
2019-05-02T03:05:25.904Z,6.80
2019-05-02T03:10:24.640Z,7.60
2019-05-02T03:15:30.869Z,7.75
2019-05-02T03:20:40.456Z,6.00
2019-05-02T03:25:50.368Z,6.25
2019-05-02T03:30:46.723Z,6.00
2019-05-02T03:35:50.989Z,7.00
2019-05-02T03:40:55.155Z,6.20
2019-05-02T03:45:59.390Z,9.00
2019-05-02T03:51:05.176Z,7.00
2019-05-02T03:56:11.953Z,6.00
2019-05-02T04:01:15.531Z,6.20
2019-05-02T04:06:20.946Z,6.25
2019-05-02T04:11:32.836Z,6.20
2019-05-02T04:16:32.657Z,6.75
2019-05-02T04:21:37.034Z,8.50
2019-05-02T04:26:52.770Z,7.00
2019-05-02T04:31:47.000Z,5.50
2019-05-02T04:37:00.237Z,7.00
2019-05-02T04:41:58.633Z,6.00
2019-05-02T04:47:10.984Z,5.75
2019-05-02T04:52:12.462Z,8.00
2019-05-02T04:57:14.520Z,7.00
2019-05-02T05:02:21.201Z,5.00
2019-05-02T05:07:24.617Z,5.60
2019-05-02T05:12:32.603Z,6.75
2019-05-02T05:17:34.352Z,8.75
2019-05-02T05:22:44.373Z,6.80
2019-05-02T05:27:44.094Z,6.00
2019-05-02T05:32:48.123Z,6.20
2019-05-02T05:37:53.349Z,6.00
2019-05-02T05:42:57.524Z,5.75
2019-05-02T05:48:01.541Z,6.00
2019-05-02T05:53:07.507Z,4.80
2019-05-02T05:58:15.478Z,4.80
2019-05-02T06:03:18.861Z,4.25
2019-05-02T06:08:22.884Z,5.40
2019-05-02T06:13:27.068Z,5.25
2019-05-02T06:18:31.273Z,5.75
2019-05-02T06:23:36.425Z,6.80
2019-05-02T06:28:41.817Z,5.25
2019-05-02T06:33:46.879Z,5.00
2019-05-02T06:38:52.321Z,7.25
2019-05-02T06:43:56.871Z,5.00
2019-05-02T06:49:01.026Z,8.50
2019-05-02T06:54:05.354Z,16.75
2019-05-02T06:59:13.192Z,10.60
2019-05-02T07:04:17.344Z,40.20
2019-05-02T07:09:21.819Z,41.80
2019-05-02T07:14:26.545Z,42.00
2019-05-02T07:19:36.460Z,37.20
2019-05-02T07:24:41.136Z,36.80
2019-05-02T07:29:45.198Z,33.25
2019-05-02T07:34:49.521Z,34.00
2019-05-02T07:39:53.691Z,32.00
2019-05-02T07:44:57.730Z,30.00
2019-05-02T07:50:05.336Z,31.20
2019-05-02T07:55:10.028Z,28.60
2019-05-02T08:00:16.350Z,30.75
2019-05-02T08:05:23.816Z,30.40
2019-05-02T08:10:26.553Z,33.00
2019-05-02T08:15:30.628Z,30.25
2019-05-02T08:20:34.813Z,44.25
2019-05-02T08:25:41.574Z,43.50
2019-05-02T08:30:50.715Z,38.00
2019-05-02T08:35:54.875Z,34.50
2019-05-02T08:40:58.938Z,34.75
2019-05-02T08:46:03.049Z,33.50
2019-05-02T08:51:07.095Z,31.40
2019-05-02T08:56:11.118Z,32.50
2019-05-02T09:01:15.512Z,32.00
2019-05-02T09:06:22.583Z,34.00
2019-05-02T09:11:26.165Z,30.40
2019-05-02T09:16:32.637Z,29.00
2019-05-02T09:21:36.170Z,30.80
2019-05-02T09:26:42.433Z,27.60
2019-05-02T09:31:46.311Z,29.00
2019-05-02T09:36:50.415Z,25.80
2019-05-02T09:41:54.577Z,24.80
2019-05-02T09:46:58.827Z,24.00
2019-05-02T09:52:03.419Z,26.75
2019-05-02T09:57:07.584Z,29.50
2019-05-02T10:02:12.588Z,28.25
2019-05-02T10:07:16.757Z,28.25
2019-05-02T10:12:22.886Z,28.00
2019-05-02T10:17:29.641Z,33.00
2019-05-02T10:22:39.223Z,31.00
2019-05-02T10:27:43.880Z,29.00
2019-05-02T10:32:47.226Z,30.75
2019-05-02T10:37:52.150Z,29.00
2019-05-02T10:42:56.401Z,28.60
2019-05-02T10:48:02.251Z,29.80
2019-05-02T10:53:12.059Z,30.00
2019-05-02T10:58:12.516Z,24.40
2019-05-02T11:03:28.619Z,27.00
2019-05-02T11:08:36.824Z,27.25
2019-05-02T11:13:48.440Z,29.80
2019-05-02T11:19:04.751Z,27.00
2019-05-02T11:24:11.498Z,29.00
2019-05-02T11:29:14.690Z,24.25
2019-05-02T11:34:18.839Z,28.80
2019-05-02T11:39:28.656Z,25.60
2019-05-02T11:44:29.510Z,27.00
2019-05-02T11:49:33.554Z,23.80
2019-05-02T11:54:39.177Z,21.80
2019-05-02T11:59:43.380Z,20.00
2019-05-02T12:04:51.785Z,22.80
2019-05-02T12:09:57.056Z,21.40
2019-05-02T12:14:59.097Z,18.25
2019-05-02T12:20:03.417Z,15.40
2019-05-02T12:25:07.613Z,16.00
2019-05-02T12:30:14.246Z,18.40
2019-05-02T12:35:18.442Z,16.20
2019-05-02T12:40:22.885Z,14.00
2019-05-02T12:45:31.090Z,12.50
2019-05-02T12:50:35.445Z,13.00
2019-05-02T12:55:41.949Z,14.60
2019-05-02T13:00:47.266Z,14.00
2019-05-02T13:05:52.139Z,13.00
2019-05-02T13:11:07.521Z,10.50
2019-05-02T13:16:12.307Z,11.40
2019-05-02T13:21:23.360Z,12.00
2019-05-02T13:26:27.398Z,13.00
2019-05-02T13:31:47.353Z,13.00
2019-05-02T13:36:51.957Z,9.60
2019-05-02T13:41:56.134Z,11.40
2019-05-02T13:47:05.307Z,9.00
2019-05-02T13:52:11.692Z,11.50
2019-05-02T13:57:15.415Z,10.00
2019-05-02T14:02:37.512Z,10.50
2019-05-02T14:07:43.669Z,9.80
2019-05-02T14:12:50.435Z,10.40
2019-05-02T14:17:54.521Z,7.80
2019-05-02T14:22:58.733Z,9.75
2019-05-02T14:28:03.174Z,9.25
2019-05-02T14:33:13.466Z,9.00
2019-05-02T14:38:17.518Z,9.80
2019-05-02T14:43:46.230Z,10.00
2019-05-02T14:48:46.887Z,9.00
2019-05-02T14:53:52.581Z,7.75
2019-05-02T14:58:56.863Z,9.25
2019-05-02T15:04:06.453Z,8.00
2019-05-02T15:09:09.071Z,9.00
2019-05-02T15:14:18.046Z,7.75
2019-05-02T15:19:18.978Z,6.25
2019-05-02T15:24:23.162Z,7.75
2019-05-02T15:29:27.539Z,9.75
2019-05-02T15:34:46.282Z,7.00
2019-05-02T15:44:48.821Z,9.25
2019-05-02T15:49:52.936Z,7.00
2019-05-02T15:55:03.529Z,8.75
2019-05-02T16:00:03.841Z,8.75
2019-05-02T16:05:08.564Z,7.80
2019-05-02T16:10:13.589Z,7.00
2019-05-02T16:15:21.478Z,8.25
2019-05-02T16:20:32.367Z,10.00
2019-05-02T16:25:36.523Z,7.75
2019-05-02T16:30:47.332Z,8.25
2019-05-02T16:35:51.510Z,8.80
2019-05-02T16:40:54.645Z,7.25
2019-05-02T16:45:59.245Z,7.75
2019-05-02T16:51:08.153Z,5.00
2019-05-02T16:56:11.870Z,5.60
2019-05-02T17:01:24.631Z,5.75
2019-05-02T17:06:25.858Z,3.40
2019-05-02T17:11:35.718Z,6.00
2019-05-02T17:16:37.883Z,4.40
2019-05-02T17:21:52.991Z,4.00
2019-05-02T17:26:47.768Z,5.25
2019-05-02T17:31:55.512Z,5.00
2019-05-02T17:36:59.180Z,6.00
2019-05-02T17:42:03.462Z,6.80
2019-05-02T17:47:09.303Z,7.20
2019-05-02T17:52:35.288Z,4.75
2019-05-02T17:57:39.357Z,6.25
2019-05-02T18:02:46.978Z,8.25
2019-05-02T18:07:49.198Z,6.60
2019-05-02T18:12:56.646Z,6.80
2019-05-02T18:17:59.870Z,7.60
2019-05-02T18:23:06.079Z,7.75
2019-05-02T18:28:14.018Z,8.00
2019-05-02T18:33:16.042Z,7.75
2019-05-02T18:38:20.928Z,7.00
2019-05-02T18:43:25.454Z,6.60
2019-05-02T18:48:29.514Z,6.00
2019-05-02T18:53:33.609Z,4.00
2019-05-02T18:58:41.239Z,5.50
2019-05-02T19:03:46.979Z,4.80
2019-05-02T19:08:52.279Z,5.60
2019-05-02T19:13:56.613Z,5.00
2019-05-02T19:19:01.731Z,6.20
2019-05-02T19:24:06.184Z,4.50
2019-05-02T19:29:24.821Z,6.00
2019-05-02T19:34:29.006Z,7.00
2019-05-02T19:39:38.963Z,5.00
2019-05-02T19:44:42.064Z,6.25
2019-05-02T19:49:47.303Z,4.00
2019-05-02T19:54:52.134Z,5.00
2019-05-02T19:59:57.096Z,6.25
2019-05-02T20:05:02.856Z,6.75
2019-05-02T20:10:07.536Z,6.00
2019-05-02T20:15:17.070Z,6.00
2019-05-02T20:20:40.844Z,6.80
2019-05-02T20:25:46.132Z,7.00
2019-05-02T20:30:52.511Z,6.60
2019-05-02T20:35:56.156Z,6.40
2019-05-02T20:41:00.297Z,6.00
2019-05-02T20:46:04.547Z,5.60
2019-05-02T20:51:08.747Z,6.00
2019-05-02T20:56:12.839Z,6.75
2019-05-02T21:01:17.006Z,5.25
2019-05-02T21:06:38.634Z,5.00
2019-05-02T21:11:34.904Z,4.00
2019-05-02T21:16:38.990Z,5.20
2019-05-02T21:21:43.355Z,6.00
2019-05-02T21:26:47.454Z,4.80
2019-05-02T21:31:52.015Z,6.00
2019-05-02T21:36:56.119Z,4.60
2019-05-02T21:42:02.192Z,3.75
2019-05-02T21:47:06.100Z,3.80
2019-05-02T21:52:29.005Z,5.00
2019-05-02T21:57:33.037Z,4.00
2019-05-02T22:02:37.457Z,4.00
2019-05-02T22:07:41.751Z,4.00
2019-05-02T22:12:45.875Z,4.00
2019-05-02T22:17:49.880Z,4.00
2019-05-02T22:22:54.009Z,3.75
2019-05-02T22:27:58.029Z,4.50
2019-05-02T22:33:02.776Z,5.20
2019-05-02T22:38:24.110Z,4.00
2019-05-02T22:43:28.337Z,5.60
2019-05-02T22:48:32.401Z,4.00
2019-05-02T22:53:36.672Z,2.80
2019-05-02T22:58:42.130Z,4.00
2019-05-02T23:03:46.361Z,6.50
2019-05-02T23:08:52.400Z,4.00
2019-05-02T23:13:56.285Z,3.00
2019-05-02T23:19:00.354Z,4.20
2019-05-02T23:24:08.820Z,3.80
2019-05-02T23:29:13.771Z,3.25
2019-05-02T23:34:17.917Z,4.50
2019-05-02T23:39:22.111Z,3.00
2019-05-02T23:44:26.148Z,3.20
2019-05-02T23:49:30.162Z,4.00
2019-05-02T23:54:34.537Z,3.40
2019-05-02T23:59:38.567Z,3.40
